createdAt,value
2018-04-06T00:00:59.861Z,65.43
2018-04-06T00:02:00.033Z,65.43
2018-04-06T00:03:00.213Z,65.92
2018-04-06T00:04:00.401Z,63.72
2018-04-06T00:05:00.584Z,63.48
2018-04-06T00:06:00.785Z,63.72
2018-04-06T00:07:00.954Z,63.96
2018-04-06T00:08:01.171Z,64.21
2018-04-06T00:09:01.299Z,63.72
2018-04-06T00:10:01.477Z,63.96
2018-04-06T00:11:01.650Z,64.70
2018-04-06T00:12:01.828Z,64.94
2018-04-06T00:13:02.007Z,66.16
2018-04-06T00:14:02.187Z,64.45
2018-04-06T00:15:02.366Z,64.45
2018-04-06T00:16:02.547Z,63.96
2018-04-06T00:17:03.111Z,64.45
2018-04-06T00:18:02.882Z,64.45
2018-04-06T00:19:03.063Z,64.45
2018-04-06T00:20:03.239Z,64.21
2018-04-06T00:21:03.422Z,64.21
2018-04-06T00:22:03.591Z,64.70
2018-04-06T00:23:03.764Z,64.21
2018-04-06T00:24:03.938Z,64.21
2018-04-06T00:25:04.111Z,64.45
2018-04-06T00:26:04.288Z,64.21
2018-04-06T00:27:04.464Z,64.45
2018-04-06T00:28:04.636Z,64.21
2018-04-06T00:29:04.814Z,63.72
2018-04-06T00:30:04.989Z,64.21
2018-04-06T00:31:05.168Z,64.21
2018-04-06T00:32:05.342Z,63.96
2018-04-06T00:33:05.521Z,64.21
2018-04-06T00:34:05.699Z,63.96
2018-04-06T00:35:05.874Z,63.72
2018-04-06T00:36:06.053Z,63.96
2018-04-06T00:37:06.228Z,64.21
2018-04-06T00:38:06.412Z,63.96
2018-04-06T00:39:06.580Z,64.21
2018-04-06T00:40:06.754Z,63.96
2018-04-06T00:41:06.931Z,64.21
2018-04-06T00:42:07.100Z,63.48
2018-04-06T00:43:07.280Z,64.45
2018-04-06T00:44:07.456Z,64.45
2018-04-06T00:45:07.638Z,64.45
2018-04-06T00:46:07.819Z,64.21
2018-04-06T00:47:08.001Z,64.70
2018-04-06T00:48:08.170Z,63.96
2018-04-06T00:49:08.347Z,64.21
2018-04-06T00:50:08.530Z,64.21
2018-04-06T00:51:08.701Z,63.96
2018-04-06T00:52:08.876Z,64.21
2018-04-06T00:53:09.053Z,64.21
2018-04-06T00:54:09.227Z,64.70
2018-04-06T00:55:09.398Z,64.21
2018-04-06T00:56:09.578Z,64.45
2018-04-06T00:57:09.765Z,64.45
2018-04-06T00:58:09.948Z,64.21
2018-04-06T00:59:10.125Z,63.96
2018-04-06T01:00:10.302Z,64.21
2018-04-06T01:01:10.477Z,64.21
2018-04-06T01:02:10.649Z,64.70
2018-04-06T01:03:10.822Z,64.70
2018-04-06T01:04:10.999Z,65.67
2018-04-06T01:05:11.171Z,65.92
2018-04-06T01:06:11.353Z,65.19
2018-04-06T01:07:11.533Z,63.96
2018-04-06T01:08:11.716Z,65.67
2018-04-06T01:09:11.890Z,65.19
2018-04-06T01:10:12.057Z,64.70
2018-04-06T01:11:12.245Z,65.92
2018-04-06T01:12:12.421Z,65.92
2018-04-06T01:13:12.601Z,65.19
2018-04-06T01:14:12.780Z,63.48
2018-04-06T01:15:12.964Z,64.21
2018-04-06T01:16:13.140Z,65.67
2018-04-06T01:17:13.315Z,64.94
2018-04-06T01:18:13.489Z,63.72
2018-04-06T01:19:13.660Z,63.72
2018-04-06T01:20:13.835Z,64.94
2018-04-06T01:21:14.009Z,64.21
2018-04-06T01:22:14.184Z,64.70
2018-04-06T01:23:14.356Z,64.45
2018-04-06T01:24:14.538Z,64.70
2018-04-06T01:25:14.706Z,64.45
2018-04-06T01:26:18.228Z,64.70
2018-04-06T01:27:17.601Z,64.70
2018-04-06T01:28:15.808Z,64.94
2018-04-06T01:29:15.576Z,65.19
2018-04-06T01:30:16.793Z,64.70
2018-04-06T01:31:15.623Z,64.94
2018-04-06T01:32:15.795Z,64.94
2018-04-06T01:33:15.973Z,64.70
2018-04-06T01:34:16.148Z,64.94
2018-04-06T01:35:16.330Z,64.70
2018-04-06T01:36:16.502Z,64.94
2018-04-06T01:37:16.682Z,65.19
2018-04-06T01:38:16.859Z,64.70
2018-04-06T01:39:17.034Z,64.21
2018-04-06T01:40:17.214Z,65.43
2018-04-06T01:41:17.394Z,64.45
2018-04-06T01:42:17.568Z,66.16
2018-04-06T01:43:17.738Z,65.92
2018-04-06T01:44:17.915Z,65.67
2018-04-06T01:45:18.099Z,65.67
2018-04-06T01:46:18.267Z,64.94
2018-04-06T01:47:18.440Z,64.45
2018-04-06T01:48:18.622Z,64.94
2018-04-06T01:49:18.797Z,64.94
2018-04-06T01:50:18.971Z,64.70
2018-04-06T01:51:19.148Z,64.94
2018-04-06T01:52:19.328Z,64.94
2018-04-06T01:53:19.507Z,64.94
2018-04-06T01:54:19.685Z,64.94
2018-04-06T01:55:19.871Z,64.70
2018-04-06T01:56:20.045Z,65.92
2018-04-06T01:57:20.228Z,66.41
2018-04-06T01:58:20.401Z,66.65
2018-04-06T01:59:20.581Z,66.41
2018-04-06T02:00:20.754Z,65.92
2018-04-06T02:01:20.924Z,66.41
2018-04-06T02:02:21.100Z,65.92
2018-04-06T02:03:21.270Z,66.16
2018-04-06T02:04:21.444Z,64.94
2018-04-06T02:05:21.617Z,65.43
2018-04-06T02:06:21.794Z,65.19
2018-04-06T02:07:21.964Z,64.94
2018-04-06T02:08:22.139Z,65.43
2018-04-06T02:09:22.316Z,64.70
2018-04-06T02:10:22.495Z,65.67
2018-04-06T02:11:22.669Z,65.92
2018-04-06T02:12:22.844Z,66.41
2018-04-06T02:13:23.014Z,66.41
2018-04-06T02:14:23.191Z,65.92
2018-04-06T02:15:23.368Z,66.41
2018-04-06T02:16:23.541Z,66.41
2018-04-06T02:17:23.713Z,66.41
2018-04-06T02:18:23.888Z,66.16
2018-04-06T02:19:24.067Z,66.41
2018-04-06T02:20:24.240Z,66.16
2018-04-06T02:21:24.422Z,66.41
2018-04-06T02:22:24.606Z,66.16
2018-04-06T02:23:24.782Z,66.41
2018-04-06T02:24:24.960Z,66.41
2018-04-06T02:25:25.136Z,67.14
2018-04-06T02:26:25.317Z,66.41
2018-04-06T02:27:25.492Z,66.16
2018-04-06T02:28:25.673Z,66.41
2018-04-06T02:29:25.849Z,65.92
2018-04-06T02:30:26.026Z,66.41
2018-04-06T02:31:26.203Z,66.65
2018-04-06T02:32:26.376Z,66.65
2018-04-06T02:33:26.556Z,66.65
2018-04-06T02:34:26.729Z,67.14
2018-04-06T02:35:26.903Z,66.41
2018-04-06T02:36:27.085Z,66.16
2018-04-06T02:37:27.265Z,66.16
2018-04-06T02:38:27.445Z,66.89
2018-04-06T02:39:27.625Z,66.41
2018-04-06T02:40:32.546Z,66.89
2018-04-06T02:41:32.649Z,66.65
2018-04-06T02:42:32.548Z,66.41
2018-04-06T02:43:32.790Z,65.92
2018-04-06T02:44:31.116Z,65.92
2018-04-06T02:45:32.010Z,64.94
2018-04-06T02:46:32.142Z,65.43
2018-04-06T02:47:33.766Z,64.70
2018-04-06T02:48:33.259Z,64.45
2018-04-06T02:49:33.986Z,65.19
2018-04-06T02:50:29.800Z,64.70
2018-04-06T02:51:29.926Z,64.94
2018-04-06T02:52:30.654Z,64.70
2018-04-06T02:53:30.075Z,65.19
2018-04-06T02:54:30.787Z,64.94
2018-04-06T02:55:30.338Z,64.94
2018-04-06T02:56:30.615Z,65.19
2018-04-06T02:57:30.716Z,64.70
2018-04-06T02:58:30.894Z,64.45
2018-04-06T02:59:31.068Z,64.45
2018-04-06T03:00:31.987Z,65.43
2018-04-06T03:01:31.421Z,64.45
2018-04-06T03:02:31.596Z,64.70
2018-04-06T03:03:31.775Z,64.70
2018-04-06T03:04:31.955Z,64.70
2018-04-06T03:05:32.133Z,64.70
2018-04-06T03:06:32.311Z,64.70
2018-04-06T03:07:32.481Z,64.45
2018-04-06T03:08:32.655Z,64.94
2018-04-06T03:09:32.826Z,64.94
2018-04-06T03:10:33.004Z,64.45
2018-04-06T03:11:33.179Z,65.19
2018-04-06T03:12:33.353Z,64.94
2018-04-06T03:13:33.528Z,64.45
2018-04-06T03:14:33.709Z,64.94
2018-04-06T03:15:33.883Z,64.45
2018-04-06T03:16:34.050Z,64.70
2018-04-06T03:17:34.225Z,64.45
2018-04-06T03:18:34.714Z,65.19
2018-04-06T03:19:34.822Z,64.70
2018-04-06T03:20:34.924Z,65.43
2018-04-06T03:21:35.166Z,64.70
2018-04-06T03:22:35.138Z,65.19
2018-04-06T03:23:35.401Z,64.94
2018-04-06T03:24:35.555Z,65.43
2018-04-06T03:25:35.678Z,64.94
2018-04-06T03:26:36.026Z,64.94
2018-04-06T03:27:35.978Z,64.70
2018-04-06T03:28:36.147Z,64.21
2018-04-06T03:29:36.262Z,65.67
2018-04-06T03:30:36.377Z,65.19
2018-04-06T03:31:36.645Z,64.94
2018-04-06T03:32:36.720Z,65.19
2018-04-06T03:33:36.813Z,65.19
2018-04-06T03:34:37.024Z,65.67
2018-04-06T03:35:36.786Z,66.65
2018-04-06T03:36:36.971Z,65.19
2018-04-06T03:37:37.146Z,65.19
2018-04-06T03:38:37.320Z,65.43
2018-04-06T03:39:37.501Z,66.16
2018-04-06T03:40:37.681Z,65.19
2018-04-06T03:41:37.860Z,68.12
2018-04-06T03:42:38.031Z,65.19
2018-04-06T03:43:38.204Z,65.67
2018-04-06T03:44:38.384Z,64.45
2018-04-06T03:45:38.560Z,66.41
2018-04-06T03:46:38.736Z,65.19
2018-04-06T03:47:38.913Z,64.70
2018-04-06T03:48:39.089Z,71.04
2018-04-06T03:49:39.273Z,64.94
2018-04-06T03:50:39.445Z,65.19
2018-04-06T03:51:39.624Z,65.43
2018-04-06T03:52:39.803Z,65.43
2018-04-06T03:53:39.980Z,65.67
2018-04-06T03:54:40.156Z,66.65
2018-04-06T03:55:40.339Z,67.14
2018-04-06T03:56:40.510Z,67.14
2018-04-06T03:57:40.683Z,67.14
2018-04-06T03:58:40.868Z,67.14
2018-04-06T03:59:41.040Z,67.14
2018-04-06T04:00:41.223Z,67.87
2018-04-06T04:01:41.404Z,66.89
2018-04-06T04:02:41.576Z,66.65
2018-04-06T04:03:41.756Z,67.63
2018-04-06T04:04:41.932Z,68.60
2018-04-06T04:05:42.115Z,66.65
2018-04-06T04:06:42.292Z,67.38
2018-04-06T04:07:42.466Z,70.07
2018-04-06T04:08:42.641Z,70.31
2018-04-06T04:09:42.811Z,72.27
2018-04-06T04:10:42.987Z,72.51
2018-04-06T04:11:43.166Z,72.02
2018-04-06T04:12:43.338Z,68.60
2018-04-06T04:13:43.515Z,67.38
2018-04-06T04:14:43.695Z,68.12
2018-04-06T04:15:43.877Z,67.14
2018-04-06T04:16:44.053Z,67.63
2018-04-06T04:17:44.234Z,67.38
2018-04-06T04:18:44.413Z,67.14
2018-04-06T04:19:44.599Z,67.38
2018-04-06T04:20:44.783Z,68.12
2018-04-06T04:21:44.959Z,67.38
2018-04-06T04:22:45.130Z,68.36
2018-04-06T04:23:48.809Z,69.82
2018-04-06T04:24:48.953Z,71.78
2018-04-06T04:25:45.633Z,66.89
2018-04-06T04:26:46.154Z,66.41
2018-04-06T04:27:45.947Z,66.41
2018-04-06T04:28:51.105Z,66.41
2018-04-06T04:29:50.739Z,65.43
2018-04-06T04:30:49.831Z,66.65
2018-04-06T04:31:46.603Z,66.16
2018-04-06T04:32:46.784Z,66.16
2018-04-06T04:33:51.271Z,66.41
2018-04-06T04:34:51.132Z,66.65
2018-04-06T04:35:47.307Z,69.34
2018-04-06T04:36:49.946Z,67.87
2018-04-06T04:37:50.457Z,66.65
2018-04-06T04:38:49.811Z,66.16
2018-04-06T04:39:53.262Z,66.16
2018-04-06T04:40:48.081Z,65.67
2018-04-06T04:41:51.017Z,65.43
2018-04-06T04:42:48.745Z,65.19
2018-04-06T04:43:52.337Z,65.43
2018-04-06T04:44:53.781Z,65.19
2018-04-06T04:45:51.247Z,65.43
2018-04-06T04:46:51.775Z,65.43
2018-04-06T04:47:49.064Z,64.70
2018-04-06T04:48:49.273Z,64.70
2018-04-06T04:49:49.451Z,64.21
2018-04-06T04:50:49.624Z,64.94
2018-04-06T04:51:49.803Z,66.89
2018-04-06T04:52:49.984Z,64.94
2018-04-06T04:53:50.173Z,64.45
2018-04-06T04:54:50.333Z,64.94
2018-04-06T04:55:50.506Z,64.70
2018-04-06T04:56:50.697Z,64.94
2018-04-06T04:57:50.880Z,64.45
2018-04-06T04:58:51.064Z,64.45
2018-04-06T04:59:51.235Z,64.70
2018-04-06T05:00:51.414Z,64.94
2018-04-06T05:01:51.590Z,64.94
2018-04-06T05:02:51.775Z,64.21
2018-04-06T05:03:53.493Z,64.70
2018-04-06T05:04:55.052Z,64.45
2018-04-06T05:05:55.912Z,64.21
2018-04-06T05:06:52.368Z,64.70
2018-04-06T05:07:54.759Z,64.94
2018-04-06T05:08:54.563Z,64.45
2018-04-06T05:09:55.107Z,64.70
2018-04-06T05:10:55.249Z,65.19
2018-04-06T05:11:55.399Z,66.16
2018-04-06T05:12:57.027Z,65.19
2018-04-06T05:13:55.294Z,66.89
2018-04-06T05:14:55.222Z,65.92
2018-04-06T05:15:55.451Z,67.14
2018-04-06T05:16:54.673Z,65.92
2018-04-06T05:17:55.972Z,65.67
2018-04-06T05:18:56.010Z,65.43
2018-04-06T05:19:54.500Z,65.19
2018-04-06T05:20:57.561Z,64.70
2018-04-06T05:21:57.055Z,65.19
2018-04-06T05:22:57.662Z,65.19
2018-04-06T05:23:58.393Z,65.43
2018-04-06T05:24:56.787Z,65.19
2018-04-06T05:25:57.037Z,67.63
2018-04-06T05:26:56.893Z,64.94
2018-04-06T05:27:59.295Z,64.70
2018-04-06T05:28:58.855Z,63.96
2018-04-06T05:29:57.993Z,67.87
2018-04-06T05:30:58.619Z,64.70
2018-04-06T05:31:59.187Z,64.70
2018-04-06T05:32:58.454Z,65.67
2018-04-06T05:34:00.307Z,65.43
2018-04-06T05:34:57.602Z,65.19
2018-04-06T05:36:00.276Z,64.70
2018-04-06T05:36:57.330Z,64.45
2018-04-06T05:37:57.504Z,64.21
2018-04-06T05:38:57.674Z,64.21
2018-04-06T05:39:57.846Z,64.21
2018-04-06T05:40:58.023Z,62.01
2018-04-06T05:41:58.202Z,62.50
2018-04-06T05:42:58.383Z,59.57
2018-04-06T05:43:58.565Z,59.57
2018-04-06T05:44:58.740Z,59.33
2018-04-06T05:45:58.921Z,61.52
2018-04-06T05:46:59.094Z,64.45
2018-04-06T05:47:59.270Z,58.84
2018-04-06T05:48:59.456Z,64.21
2018-04-06T05:49:59.622Z,66.65
2018-04-06T05:50:59.811Z,67.38
2018-04-06T05:52:00.006Z,59.57
2018-04-06T05:53:00.179Z,59.33
2018-04-06T05:54:00.355Z,60.06
2018-04-06T05:55:00.532Z,60.79
2018-04-06T05:56:00.709Z,61.28
2018-04-06T05:57:00.884Z,59.57
2018-04-06T05:58:01.053Z,59.57
2018-04-06T05:59:01.234Z,59.57
2018-04-06T06:00:01.411Z,59.08
2018-04-06T06:01:01.589Z,58.84
2018-04-06T06:02:01.788Z,61.04
2018-04-06T06:03:01.969Z,60.06
2018-04-06T06:04:02.140Z,61.28
2018-04-06T06:05:02.309Z,61.28
2018-04-06T06:06:03.450Z,61.28
2018-04-06T06:07:04.719Z,61.04
2018-04-06T06:08:03.428Z,61.52
2018-04-06T06:09:03.862Z,59.57
2018-04-06T06:10:04.681Z,62.74
2018-04-06T06:11:03.971Z,63.72
2018-04-06T06:12:05.379Z,64.21
2018-04-06T06:13:06.566Z,63.48
2018-04-06T06:14:06.436Z,64.21
2018-04-06T06:15:06.155Z,63.48
2018-04-06T06:16:06.492Z,65.43
2018-04-06T06:17:06.182Z,62.26
2018-04-06T06:18:06.022Z,64.21
2018-04-06T06:19:05.785Z,59.33
2018-04-06T06:20:05.900Z,59.08
2018-04-06T06:21:06.520Z,59.81
2018-04-06T06:22:06.019Z,61.28
2018-04-06T06:23:07.299Z,57.86
2018-04-06T06:24:07.094Z,61.52
2018-04-06T06:25:06.437Z,60.30
2018-04-06T06:26:06.820Z,58.59
2018-04-06T06:27:07.701Z,59.08
2018-04-06T06:28:06.590Z,61.04
2018-04-06T06:30:07.841Z,58.59
2018-04-06T06:31:06.818Z,58.59
2018-04-06T06:32:08.385Z,55.66
2018-04-06T06:33:07.376Z,55.42
2018-04-06T06:34:08.461Z,60.79
2018-04-06T06:35:07.170Z,57.13
2018-04-06T06:36:07.420Z,56.15
2018-04-06T06:37:07.745Z,58.11
2018-04-06T06:38:09.617Z,56.40
2018-04-06T06:39:07.712Z,56.64
2018-04-06T06:40:08.491Z,59.33
2018-04-06T06:41:08.269Z,63.23
2018-04-06T06:44:29.772Z,58.35
2018-04-06T06:45:09.640Z,54.20
2018-04-06T06:46:09.278Z,63.72
2018-04-06T06:47:10.061Z,66.16
2018-04-06T06:48:09.445Z,64.70
2018-04-06T06:49:09.573Z,55.42
2018-04-06T06:50:09.983Z,54.93
2018-04-06T06:51:09.996Z,56.64
2018-04-06T06:52:09.685Z,61.04
2018-04-06T06:53:12.353Z,56.64
2018-04-06T06:54:10.107Z,57.62
2018-04-06T06:55:10.530Z,57.13
2018-04-06T06:56:10.637Z,54.20
2018-04-06T06:58:10.652Z,54.69
2018-04-06T07:02:43.841Z,53.22
2018-04-06T07:03:44.089Z,57.62
2018-04-06T07:04:44.273Z,62.99
2018-04-06T07:05:44.469Z,52.98
2018-04-06T07:06:44.571Z,56.64
2018-04-06T07:07:45.297Z,61.52
2018-04-06T07:08:44.766Z,54.93
2018-04-06T07:09:44.919Z,64.45
2018-04-06T07:10:45.151Z,57.62
2018-04-06T07:11:45.373Z,57.86
2018-04-06T07:12:46.722Z,58.11
2018-04-06T07:13:45.602Z,57.86
2018-04-06T07:14:45.870Z,53.47
2018-04-06T07:15:45.876Z,57.13
2018-04-06T07:16:45.923Z,56.40
2018-04-06T07:17:46.117Z,52.73
2018-04-06T07:18:46.309Z,52.00
2018-04-06T07:19:46.503Z,53.22
2018-04-06T07:20:46.687Z,54.93
2018-04-06T07:21:46.886Z,55.91
2018-04-06T07:22:47.067Z,55.66
2018-04-06T07:23:47.278Z,55.18
2018-04-06T07:24:47.471Z,55.42
2018-04-06T07:25:47.672Z,55.66
2018-04-06T07:26:47.857Z,54.44
2018-04-06T07:27:48.049Z,51.51
2018-04-06T07:28:48.239Z,55.66
2018-04-06T07:29:48.426Z,57.37
2018-04-06T07:30:48.614Z,57.62
2018-04-06T07:31:48.803Z,54.20
2018-04-06T07:32:48.996Z,51.76
2018-04-06T07:33:49.189Z,71.29
2018-04-06T07:34:49.381Z,58.84
2018-04-06T07:35:49.576Z,59.08
2018-04-06T07:36:49.765Z,55.18
2018-04-06T07:37:49.975Z,50.29
2018-04-06T07:38:50.176Z,55.66
2018-04-06T07:39:50.546Z,68.60
2018-04-06T07:40:50.804Z,57.13
2018-04-06T07:41:50.769Z,56.88
2018-04-06T07:42:50.969Z,56.40
2018-04-06T07:43:51.163Z,57.13
2018-04-06T07:44:51.365Z,61.77
2018-04-06T07:45:51.576Z,54.20
2018-04-06T07:46:51.776Z,54.20
2018-04-06T07:47:51.967Z,58.59
2018-04-06T07:48:52.168Z,54.93
2018-04-06T07:49:52.357Z,58.59
2018-04-06T07:50:52.562Z,58.59
2018-04-06T07:51:52.764Z,59.08
2018-04-06T07:52:53.683Z,62.26
2018-04-06T07:53:53.154Z,65.19
2018-04-06T07:54:53.388Z,64.45
2018-04-06T07:55:53.558Z,59.81
2018-04-06T07:56:53.758Z,60.30
2018-04-06T07:57:53.955Z,58.59
2018-04-06T07:58:54.154Z,54.20
2018-04-06T07:59:54.347Z,57.62
2018-04-06T08:00:54.540Z,57.86
2018-04-06T08:01:54.729Z,52.00
2018-04-06T08:02:54.952Z,49.56
2018-04-06T08:03:55.138Z,60.55
2018-04-06T08:04:55.331Z,69.82
2018-04-06T08:05:55.524Z,57.62
2018-04-06T08:06:55.721Z,56.64
2018-04-06T08:07:55.917Z,53.22
2018-04-06T08:08:56.110Z,57.13
2018-04-06T08:09:56.317Z,54.44
2018-04-06T08:10:56.512Z,55.18
2018-04-06T08:11:56.711Z,54.44
2018-04-06T08:12:56.919Z,55.91
2018-04-06T08:13:59.510Z,54.44
2018-04-06T08:14:59.440Z,49.07
2018-04-06T08:15:59.623Z,54.44
2018-04-06T08:16:57.688Z,53.47
2018-04-06T08:17:58.323Z,66.89
2018-04-06T08:18:58.050Z,52.25
2018-04-06T08:19:59.652Z,58.11
2018-04-06T08:21:00.008Z,53.47
2018-04-06T08:21:58.587Z,55.42
2018-04-06T08:22:58.778Z,52.98
2018-04-06T08:23:58.980Z,56.15
2018-04-06T08:24:59.167Z,54.93
2018-04-06T08:25:59.383Z,52.00
2018-04-06T08:26:59.595Z,55.18
2018-04-06T08:27:59.785Z,60.06
2018-04-06T08:28:59.981Z,58.11
2018-04-06T08:30:00.181Z,59.08
2018-04-06T08:31:00.385Z,56.88
2018-04-06T08:32:01.231Z,58.11
2018-04-06T08:33:00.770Z,53.96
2018-04-06T08:34:00.956Z,87.65
2018-04-06T08:35:01.145Z,55.66
2018-04-06T08:36:01.348Z,55.91
2018-04-06T08:37:01.544Z,56.64
2018-04-06T08:38:01.744Z,58.35
2018-04-06T08:39:01.939Z,59.08
2018-04-06T08:40:02.136Z,50.78
2018-04-06T08:41:02.333Z,54.44
2018-04-06T08:42:02.529Z,50.54
2018-04-06T08:43:02.721Z,56.40
2018-04-06T08:44:02.922Z,57.62
2018-04-06T08:45:03.117Z,53.47
2018-04-06T08:46:03.313Z,55.91
2018-04-06T08:47:03.506Z,59.33
2018-04-06T08:48:03.709Z,56.88
2018-04-06T08:49:03.897Z,58.11
2018-04-06T08:50:04.102Z,65.92
2018-04-06T08:51:04.339Z,52.25
2018-04-06T08:52:04.532Z,53.71
2018-04-06T08:53:04.734Z,58.35
2018-04-06T08:54:04.934Z,54.93
2018-04-06T08:55:05.134Z,54.69
2018-04-06T08:56:05.325Z,56.15
2018-04-06T08:57:05.533Z,55.42
2018-04-06T08:58:05.737Z,54.93
2018-04-06T08:59:05.943Z,52.98
2018-04-06T09:00:06.136Z,52.00
2018-04-06T09:01:06.336Z,55.66
2018-04-06T09:02:06.535Z,53.22
2018-04-06T09:03:06.728Z,52.98
2018-04-06T09:04:06.944Z,49.56
2018-04-06T09:05:07.171Z,52.00
2018-04-06T09:06:07.323Z,56.15
2018-04-06T09:07:07.592Z,53.96
2018-04-06T09:08:07.745Z,55.42
2018-04-06T09:09:07.925Z,52.25
2018-04-06T09:10:08.132Z,56.15
2018-04-06T09:11:08.369Z,58.84
2018-04-06T09:12:08.543Z,58.84
2018-04-06T09:13:08.738Z,57.37
2018-04-06T09:14:08.929Z,55.42
2018-04-06T09:15:09.122Z,53.96
2018-04-06T09:16:09.332Z,58.11
2018-04-06T09:17:09.519Z,55.66
2018-04-06T09:18:09.710Z,60.06
2018-04-06T09:19:09.899Z,55.91
2018-04-06T09:20:10.088Z,54.69
2018-04-06T09:21:10.402Z,56.40
2018-04-06T09:22:10.449Z,52.98
2018-04-06T09:23:10.645Z,55.42
2018-04-06T09:24:11.185Z,53.47
2018-04-06T09:25:11.022Z,54.69
2018-04-06T09:26:11.209Z,56.64
2018-04-06T09:27:11.419Z,56.40
2018-04-06T09:28:11.616Z,57.86
2018-04-06T09:29:14.020Z,60.79
2018-04-06T09:30:14.810Z,67.63
2018-04-06T09:31:12.120Z,58.11
2018-04-06T09:32:13.634Z,58.59
2018-04-06T09:33:14.890Z,56.64
2018-04-06T09:34:14.579Z,62.01
2018-04-06T09:35:12.935Z,63.96
2018-04-06T09:36:15.843Z,60.55
2018-04-06T09:37:14.091Z,55.42
2018-04-06T09:38:13.811Z,53.22
2018-04-06T09:39:16.912Z,56.64
2018-04-06T09:40:13.684Z,55.66
2018-04-06T09:41:13.881Z,57.37
2018-04-06T09:42:16.507Z,56.40
2018-04-06T09:43:17.168Z,57.62
2018-04-06T09:44:16.799Z,57.37
2018-04-06T09:45:16.723Z,55.18
2018-04-06T09:46:17.553Z,55.91
2018-04-06T09:47:15.244Z,59.08
2018-04-06T09:48:16.597Z,54.69
2018-04-06T09:49:18.737Z,60.55
2018-04-06T09:50:17.924Z,57.37
2018-04-06T09:51:17.066Z,57.86
2018-04-06T09:52:18.567Z,51.51
2018-04-06T09:53:18.166Z,53.47
2018-04-06T09:54:16.490Z,57.37
2018-04-06T09:55:16.474Z,54.20
2018-04-06T09:56:16.669Z,54.93
2018-04-06T09:57:16.869Z,58.11
2018-04-06T09:58:17.059Z,56.64
2018-04-06T09:59:17.245Z,56.15
2018-04-06T10:00:17.440Z,57.37
2018-04-06T10:01:21.756Z,54.93
2018-04-06T10:02:17.752Z,53.71
2018-04-06T10:03:17.950Z,59.81
2018-04-06T10:04:18.151Z,57.13
2018-04-06T10:05:18.348Z,59.33
2018-04-06T10:06:18.561Z,56.64
2018-04-06T10:07:18.758Z,54.20
2018-04-06T10:08:18.952Z,57.62
2018-04-06T10:09:19.157Z,56.15
2018-04-06T10:10:19.654Z,55.18
2018-04-06T10:11:19.470Z,57.62
2018-04-06T10:12:19.672Z,58.59
2018-04-06T10:13:19.866Z,57.86
2018-04-06T10:14:22.860Z,57.62
2018-04-06T10:15:21.271Z,56.88
2018-04-06T10:16:21.280Z,62.74
2018-04-06T10:17:21.578Z,72.27
2018-04-06T10:18:22.504Z,62.99
2018-04-06T10:19:22.641Z,58.59
2018-04-06T10:20:23.336Z,57.37
2018-04-06T10:21:23.205Z,55.91
2018-04-06T10:22:21.490Z,62.99
2018-04-06T10:23:22.994Z,60.06
2018-04-06T10:24:21.847Z,55.66
2018-04-06T10:25:22.050Z,62.01
2018-04-06T10:26:24.335Z,56.15
2018-04-06T10:27:23.857Z,53.47
2018-04-06T10:28:22.567Z,55.91
2018-04-06T10:29:22.765Z,59.81
2018-04-06T10:30:25.185Z,56.88
2018-04-06T10:31:25.881Z,55.42
2018-04-06T10:32:24.061Z,63.96
2018-04-06T10:33:27.152Z,57.37
2018-04-06T10:34:27.259Z,62.01
2018-04-06T10:35:25.936Z,59.33
2018-04-06T10:36:26.917Z,57.86
2018-04-06T10:37:27.423Z,57.13
2018-04-06T10:38:24.377Z,59.33
2018-04-06T10:39:28.325Z,59.08
2018-04-06T10:40:27.981Z,57.62
2018-04-06T10:41:28.335Z,57.37
2018-04-06T10:42:27.410Z,56.40
2018-04-06T10:43:27.546Z,57.86
2018-04-06T10:44:25.386Z,59.81
2018-04-06T10:45:30.313Z,65.43
2018-04-06T10:46:28.318Z,57.62
2018-04-06T10:47:25.931Z,56.64
2018-04-06T10:48:26.134Z,59.08
2018-04-06T10:49:28.299Z,57.62
2018-04-06T10:50:26.494Z,56.15
2018-04-06T10:51:28.609Z,57.86
2018-04-06T10:52:26.874Z,57.62
2018-04-06T10:53:30.144Z,61.04
2018-04-06T10:54:30.260Z,63.48
2018-04-06T10:55:29.989Z,59.57
2018-04-06T10:56:30.320Z,63.23
2018-04-06T10:57:29.288Z,57.37
2018-04-06T10:58:28.275Z,61.52
2018-04-06T10:59:28.329Z,59.81
2018-04-06T11:00:32.070Z,60.55
2018-04-06T11:01:32.720Z,58.84
2018-04-06T11:02:28.902Z,56.88
2018-04-06T11:03:31.324Z,59.81
2018-04-06T11:04:30.013Z,57.13
2018-04-06T11:05:30.661Z,65.67
2018-04-06T11:06:32.119Z,57.37
2018-04-06T11:07:30.148Z,64.94
2018-04-06T11:08:30.737Z,62.01
2018-04-06T11:09:33.132Z,54.44
2018-04-06T11:10:31.599Z,56.88
2018-04-06T11:11:30.528Z,57.86
2018-04-06T11:12:33.199Z,59.57
2018-04-06T11:13:30.753Z,61.04
2018-04-06T11:14:30.942Z,59.33
2018-04-06T11:15:31.127Z,60.55
2018-04-06T11:16:31.364Z,59.33
2018-04-06T11:17:33.097Z,58.35
2018-04-06T11:18:33.476Z,54.69
2018-04-06T11:19:33.169Z,55.42
2018-04-06T11:20:34.919Z,59.08
2018-04-06T11:21:35.435Z,57.37
2018-04-06T11:22:33.954Z,60.30
2018-04-06T11:23:35.842Z,57.37
2018-04-06T11:24:33.998Z,59.57
2018-04-06T11:25:33.208Z,58.35
2018-04-06T11:26:33.388Z,62.74
2018-04-06T11:27:34.114Z,57.86
2018-04-06T11:28:33.613Z,58.11
2018-04-06T11:29:33.773Z,59.57
2018-04-06T11:30:35.455Z,60.30
2018-04-06T11:31:36.607Z,61.04
2018-04-06T11:32:36.618Z,57.86
2018-04-06T11:33:35.961Z,56.64
2018-04-06T11:34:35.888Z,59.57
2018-04-06T11:35:36.928Z,60.06
2018-04-06T11:36:34.996Z,60.55
2018-04-06T11:37:36.508Z,62.01
2018-04-06T11:38:36.175Z,61.28
2018-04-06T11:39:35.521Z,59.33
2018-04-06T11:40:35.755Z,64.21
2018-04-06T11:41:38.876Z,64.70
2018-04-06T11:42:36.089Z,59.57
2018-04-06T11:43:39.608Z,59.81
2018-04-06T11:44:37.989Z,58.35
2018-04-06T11:45:38.103Z,59.08
2018-04-06T11:46:38.865Z,58.84
2018-04-06T11:47:37.639Z,60.06
2018-04-06T11:48:36.834Z,57.86
2018-04-06T11:49:37.021Z,57.86
2018-04-06T11:50:37.223Z,57.86
2018-04-06T11:51:38.503Z,59.33
2018-04-06T11:52:38.376Z,57.13
2018-04-06T11:53:40.533Z,60.30
2018-04-06T11:54:38.008Z,60.55
2018-04-06T11:55:38.189Z,60.06
2018-04-06T11:56:39.646Z,58.11
2018-04-06T11:57:41.018Z,59.57
2018-04-06T11:58:39.895Z,60.30
2018-04-06T11:59:40.839Z,60.79
2018-04-06T12:00:39.318Z,60.30
2018-04-06T12:01:39.401Z,60.55
2018-04-06T12:02:39.592Z,62.26
2018-04-06T12:03:39.738Z,60.55
2018-04-06T12:04:40.270Z,60.79
2018-04-06T12:05:41.623Z,60.79
2018-04-06T12:06:41.399Z,78.61
2018-04-06T12:07:42.078Z,61.52
2018-04-06T12:08:41.473Z,65.92
2018-04-06T12:09:41.960Z,61.04
2018-04-06T12:10:41.965Z,60.06
2018-04-06T12:11:41.484Z,58.11
2018-04-06T12:12:42.674Z,60.30
2018-04-06T12:13:43.049Z,56.64
2018-04-06T12:14:43.727Z,57.86
2018-04-06T12:15:41.396Z,60.55
2018-04-06T12:16:44.057Z,60.55
2018-04-06T12:17:44.725Z,60.79
2018-04-06T12:18:45.025Z,60.30
2018-04-06T12:19:43.967Z,63.48
2018-04-06T12:20:43.296Z,60.06
2018-04-06T12:21:46.510Z,61.04
2018-04-06T12:22:44.171Z,68.85
2018-04-06T12:23:43.065Z,64.70
2018-04-06T12:24:44.313Z,62.50
2018-04-06T12:25:44.665Z,66.89
2018-04-06T12:26:46.864Z,70.07
2018-04-06T12:27:44.127Z,69.34
2018-04-06T12:28:45.587Z,69.58
2018-04-06T12:29:45.922Z,67.38
2018-04-06T12:30:46.994Z,60.06
2018-04-06T12:31:45.629Z,64.45
2018-04-06T12:32:47.248Z,68.36
2018-04-06T12:33:44.738Z,67.63
2018-04-06T12:34:46.121Z,57.62
2018-04-06T12:35:47.879Z,61.77
2018-04-06T12:36:45.620Z,56.88
2018-04-06T12:37:46.991Z,58.35
2018-04-06T12:38:46.853Z,60.30
2018-04-06T12:39:46.926Z,60.06
2018-04-06T12:40:47.817Z,59.33
2018-04-06T12:41:47.312Z,62.01
2018-04-06T12:42:46.946Z,62.01
2018-04-06T12:43:47.139Z,61.77
2018-04-06T12:44:48.516Z,61.52
2018-04-06T12:45:48.648Z,59.57
2018-04-06T12:46:48.714Z,67.14
2018-04-06T12:47:49.302Z,60.55
2018-04-06T12:48:48.976Z,60.79
2018-04-06T12:49:47.110Z,61.04
2018-04-06T12:50:47.301Z,59.57
2018-04-06T12:51:47.618Z,58.35
2018-04-06T12:52:47.842Z,56.64
2018-04-06T12:53:47.741Z,58.59
2018-04-06T12:54:47.922Z,57.62
2018-04-06T12:55:48.148Z,56.40
2018-04-06T12:56:48.463Z,55.66
2018-04-06T12:57:51.785Z,58.84
2018-04-06T12:58:48.559Z,60.55
2018-04-06T12:59:48.735Z,59.81
2018-04-06T13:00:48.925Z,58.84
2018-04-06T13:01:49.105Z,56.64
2018-04-06T13:02:49.281Z,61.04